sensor_id;sensor_type;location;lat;lon;timestamp;P1;durP1;ratioP1;P2;durP2;ratioP2
11921;SDS011;6021;51.182;3.160;2024-01-25T00:01:48;25.50;;;5.93;;
11921;SDS011;6021;51.182;3.160;2024-01-25T00:04:16;23.63;;;5.93;;
11921;SDS011;6021;51.182;3.160;2024-01-25T00:06:45;19.60;;;5.80;;
11921;SDS011;6021;51.182;3.160;2024-01-25T00:09:14;24.60;;;6.00;;
11921;SDS011;6021;51.182;3.160;2024-01-25T00:11:42;27.63;;;6.03;;
11921;SDS011;6021;51.182;3.160;2024-01-25T00:14:11;19.80;;;5.50;;
11921;SDS011;6021;51.182;3.160;2024-01-25T00:16:42;25.03;;;6.17;;
11921;SDS011;6021;51.182;3.160;2024-01-25T00:19:12;21.00;;;5.60;;
11921;SDS011;6021;51.182;3.160;2024-01-25T00:21:46;21.70;;;5.57;;
11921;SDS011;6021;51.182;3.160;2024-01-25T00:24:11;20.43;;;5.20;;
11921;SDS011;6021;51.182;3.160;2024-01-25T00:26:40;23.13;;;5.77;;
11921;SDS011;6021;51.182;3.160;2024-01-25T00:29:08;20.77;;;5.10;;
11921;SDS011;6021;51.182;3.160;2024-01-25T00:31:37;23.23;;;5.43;;
11921;SDS011;6021;51.182;3.160;2024-01-25T00:34:05;21.03;;;5.80;;
11921;SDS011;6021;51.182;3.160;2024-01-25T00:36:34;19.83;;;5.17;;
11921;SDS011;6021;51.182;3.160;2024-01-25T00:39:02;18.13;;;5.30;;
11921;SDS011;6021;51.182;3.160;2024-01-25T00:41:31;19.67;;;5.50;;
11921;SDS011;6021;51.182;3.160;2024-01-25T00:44:00;20.00;;;5.27;;
11921;SDS011;6021;51.182;3.160;2024-01-25T00:46:29;15.50;;;4.67;;
11921;SDS011;6021;51.182;3.160;2024-01-25T00:48:57;15.33;;;4.80;;
11921;SDS011;6021;51.182;3.160;2024-01-25T00:51:26;19.73;;;5.00;;
11921;SDS011;6021;51.182;3.160;2024-01-25T00:53:55;19.47;;;5.10;;
11921;SDS011;6021;51.182;3.160;2024-01-25T00:56:23;20.40;;;5.37;;
11921;SDS011;6021;51.182;3.160;2024-01-25T00:58:52;16.33;;;4.60;;
11921;SDS011;6021;51.182;3.160;2024-01-25T01:01:21;29.40;;;6.33;;
11921;SDS011;6021;51.182;3.160;2024-01-25T01:03:51;22.37;;;5.43;;
11921;SDS011;6021;51.182;3.160;2024-01-25T01:06:21;22.43;;;5.90;;
11921;SDS011;6021;51.182;3.160;2024-01-25T01:08:49;21.93;;;5.53;;
11921;SDS011;6021;51.182;3.160;2024-01-25T01:11:18;16.63;;;5.10;;
11921;SDS011;6021;51.182;3.160;2024-01-25T01:13:46;19.37;;;5.40;;
11921;SDS011;6021;51.182;3.160;2024-01-25T01:16:15;21.33;;;5.27;;
11921;SDS011;6021;51.182;3.160;2024-01-25T01:18:43;21.47;;;5.20;;
11921;SDS011;6021;51.182;3.160;2024-01-25T01:21:11;18.50;;;5.30;;
11921;SDS011;6021;51.182;3.160;2024-01-25T01:23:40;20.43;;;4.87;;
11921;SDS011;6021;51.182;3.160;2024-01-25T01:26:08;17.37;;;4.63;;
11921;SDS011;6021;51.182;3.160;2024-01-25T01:28:38;20.50;;;5.27;;
11921;SDS011;6021;51.182;3.160;2024-01-25T01:31:06;17.77;;;4.97;;
11921;SDS011;6021;51.182;3.160;2024-01-25T01:33:35;21.37;;;5.50;;
11921;SDS011;6021;51.182;3.160;2024-01-25T01:36:03;21.30;;;5.57;;
11921;SDS011;6021;51.182;3.160;2024-01-25T01:38:34;21.13;;;4.83;;
11921;SDS011;6021;51.182;3.160;2024-01-25T01:41:03;18.37;;;4.70;;
11921;SDS011;6021;51.182;3.160;2024-01-25T01:43:31;16.37;;;4.47;;
11921;SDS011;6021;51.182;3.160;2024-01-25T01:46:00;19.47;;;5.10;;
11921;SDS011;6021;51.182;3.160;2024-01-25T01:48:31;26.30;;;6.23;;
11921;SDS011;6021;51.182;3.160;2024-01-25T01:50:59;13.43;;;4.60;;
11921;SDS011;6021;51.182;3.160;2024-01-25T01:53:28;19.63;;;5.60;;
11921;SDS011;6021;51.182;3.160;2024-01-25T01:55:56;19.60;;;5.17;;
11921;SDS011;6021;51.182;3.160;2024-01-25T01:58:25;19.13;;;5.17;;
11921;SDS011;6021;51.182;3.160;2024-01-25T02:00:55;19.07;;;5.60;;
11921;SDS011;6021;51.182;3.160;2024-01-25T02:03:24;22.67;;;5.30;;
11921;SDS011;6021;51.182;3.160;2024-01-25T02:05:52;16.73;;;4.63;;
11921;SDS011;6021;51.182;3.160;2024-01-25T02:08:21;17.37;;;5.13;;
11921;SDS011;6021;51.182;3.160;2024-01-25T02:10:50;21.93;;;5.40;;
11921;SDS011;6021;51.182;3.160;2024-01-25T02:13:18;17.27;;;5.13;;
11921;SDS011;6021;51.182;3.160;2024-01-25T02:15:46;20.80;;;5.00;;
11921;SDS011;6021;51.182;3.160;2024-01-25T02:18:15;20.73;;;5.40;;
11921;SDS011;6021;51.182;3.160;2024-01-25T02:20:43;18.67;;;5.03;;
11921;SDS011;6021;51.182;3.160;2024-01-25T02:23:11;25.27;;;5.93;;
11921;SDS011;6021;51.182;3.160;2024-01-25T02:25:40;17.13;;;5.23;;
11921;SDS011;6021;51.182;3.160;2024-01-25T02:28:08;21.93;;;5.07;;
11921;SDS011;6021;51.182;3.160;2024-01-25T02:30:36;18.50;;;4.80;;
11921;SDS011;6021;51.182;3.160;2024-01-25T02:33:05;20.20;;;5.23;;
11921;SDS011;6021;51.182;3.160;2024-01-25T02:35:33;23.13;;;5.20;;
11921;SDS011;6021;51.182;3.160;2024-01-25T02:38:02;16.73;;;4.53;;
11921;SDS011;6021;51.182;3.160;2024-01-25T02:40:30;19.90;;;5.17;;
11921;SDS011;6021;51.182;3.160;2024-01-25T02:42:58;17.90;;;5.20;;
11921;SDS011;6021;51.182;3.160;2024-01-25T02:45:29;19.90;;;5.67;;
11921;SDS011;6021;51.182;3.160;2024-01-25T02:47:57;22.10;;;5.70;;
11921;SDS011;6021;51.182;3.160;2024-01-25T02:50:25;17.47;;;5.10;;
11921;SDS011;6021;51.182;3.160;2024-01-25T02:52:54;16.00;;;5.00;;
11921;SDS011;6021;51.182;3.160;2024-01-25T02:55:22;20.70;;;4.90;;
11921;SDS011;6021;51.182;3.160;2024-01-25T02:57:50;18.37;;;4.93;;
11921;SDS011;6021;51.182;3.160;2024-01-25T03:00:19;13.87;;;4.60;;
11921;SDS011;6021;51.182;3.160;2024-01-25T03:02:47;20.10;;;5.13;;
11921;SDS011;6021;51.182;3.160;2024-01-25T03:05:15;20.20;;;4.77;;
11921;SDS011;6021;51.182;3.160;2024-01-25T03:07:44;18.53;;;4.97;;
11921;SDS011;6021;51.182;3.160;2024-01-25T03:10:12;22.13;;;5.33;;
11921;SDS011;6021;51.182;3.160;2024-01-25T03:12:41;20.97;;;5.70;;
11921;SDS011;6021;51.182;3.160;2024-01-25T03:15:11;15.87;;;4.70;;
11921;SDS011;6021;51.182;3.160;2024-01-25T03:17:39;22.70;;;5.33;;
11921;SDS011;6021;51.182;3.160;2024-01-25T03:20:07;19.13;;;4.77;;
11921;SDS011;6021;51.182;3.160;2024-01-25T03:22:36;17.47;;;4.63;;
11921;SDS011;6021;51.182;3.160;2024-01-25T03:25:04;15.70;;;4.67;;
11921;SDS011;6021;51.182;3.160;2024-01-25T03:27:32;21.97;;;5.47;;
11921;SDS011;6021;51.182;3.160;2024-01-25T03:30:01;15.53;;;4.30;;
11921;SDS011;6021;51.182;3.160;2024-01-25T03:32:32;18.90;;;5.27;;
11921;SDS011;6021;51.182;3.160;2024-01-25T03:35:01;17.03;;;5.03;;
11921;SDS011;6021;51.182;3.160;2024-01-25T03:37:30;12.53;;;4.47;;
11921;SDS011;6021;51.182;3.160;2024-01-25T03:39:58;15.37;;;4.80;;
11921;SDS011;6021;51.182;3.160;2024-01-25T03:42:26;19.30;;;5.33;;
11921;SDS011;6021;51.182;3.160;2024-01-25T03:44:55;16.87;;;5.13;;
11921;SDS011;6021;51.182;3.160;2024-01-25T03:47:23;18.60;;;4.90;;
11921;SDS011;6021;51.182;3.160;2024-01-25T03:49:51;16.00;;;4.63;;
11921;SDS011;6021;51.182;3.160;2024-01-25T03:52:20;14.83;;;4.40;;
11921;SDS011;6021;51.182;3.160;2024-01-25T03:54:48;17.47;;;4.63;;
11921;SDS011;6021;51.182;3.160;2024-01-25T03:57:17;17.20;;;4.50;;
11921;SDS011;6021;51.182;3.160;2024-01-25T03:59:45;15.17;;;4.30;;
11921;SDS011;6021;51.182;3.160;2024-01-25T04:02:13;15.40;;;4.60;;
11921;SDS011;6021;51.182;3.160;2024-01-25T04:04:42;20.00;;;4.53;;
11921;SDS011;6021;51.182;3.160;2024-01-25T04:07:10;15.23;;;4.37;;
11921;SDS011;6021;51.182;3.160;2024-01-25T04:09:38;15.93;;;4.53;;
11921;SDS011;6021;51.182;3.160;2024-01-25T04:12:07;14.77;;;4.30;;
11921;SDS011;6021;51.182;3.160;2024-01-25T04:14:35;16.80;;;4.43;;
11921;SDS011;6021;51.182;3.160;2024-01-25T04:17:03;21.50;;;4.87;;
11921;SDS011;6021;51.182;3.160;2024-01-25T04:19:32;12.27;;;4.33;;
11921;SDS011;6021;51.182;3.160;2024-01-25T04:22:00;10.27;;;4.07;;
11921;SDS011;6021;51.182;3.160;2024-01-25T04:24:31;16.37;;;4.30;;
11921;SDS011;6021;51.182;3.160;2024-01-25T04:27:00;13.73;;;4.33;;
11921;SDS011;6021;51.182;3.160;2024-01-25T04:29:28;17.73;;;4.63;;
11921;SDS011;6021;51.182;3.160;2024-01-25T04:31:57;15.10;;;4.90;;
11921;SDS011;6021;51.182;3.160;2024-01-25T04:34:25;12.07;;;4.37;;
11921;SDS011;6021;51.182;3.160;2024-01-25T04:36:53;12.47;;;4.23;;
11921;SDS011;6021;51.182;3.160;2024-01-25T04:39:22;11.80;;;4.37;;
11921;SDS011;6021;51.182;3.160;2024-01-25T04:41:50;18.17;;;4.67;;
11921;SDS011;6021;51.182;3.160;2024-01-25T04:44:18;15.57;;;4.80;;
11921;SDS011;6021;51.182;3.160;2024-01-25T04:46:47;19.80;;;5.30;;
11921;SDS011;6021;51.182;3.160;2024-01-25T04:49:15;18.10;;;4.73;;
11921;SDS011;6021;51.182;3.160;2024-01-25T04:51:43;14.07;;;4.77;;
11921;SDS011;6021;51.182;3.160;2024-01-25T04:54:12;16.90;;;4.67;;
11921;SDS011;6021;51.182;3.160;2024-01-25T04:56:42;17.20;;;5.07;;
11921;SDS011;6021;51.182;3.160;2024-01-25T04:59:11;12.53;;;4.17;;
11921;SDS011;6021;51.182;3.160;2024-01-25T05:01:39;13.10;;;4.10;;
11921;SDS011;6021;51.182;3.160;2024-01-25T05:04:07;12.00;;;4.13;;
11921;SDS011;6021;51.182;3.160;2024-01-25T05:06:36;17.77;;;5.30;;
11921;SDS011;6021;51.182;3.160;2024-01-25T05:09:04;13.07;;;4.73;;
11921;SDS011;6021;51.182;3.160;2024-01-25T05:11:40;19.07;;;5.63;;
11921;SDS011;6021;51.182;3.160;2024-01-25T05:14:08;16.63;;;5.17;;
11921;SDS011;6021;51.182;3.160;2024-01-25T05:16:37;14.73;;;5.10;;
11921;SDS011;6021;51.182;3.160;2024-01-25T05:19:05;16.23;;;4.60;;
11921;SDS011;6021;51.182;3.160;2024-01-25T05:21:33;14.20;;;4.57;;
11921;SDS011;6021;51.182;3.160;2024-01-25T05:24:02;14.97;;;4.90;;
11921;SDS011;6021;51.182;3.160;2024-01-25T05:26:30;12.20;;;4.97;;
11921;SDS011;6021;51.182;3.160;2024-01-25T05:28:58;15.60;;;5.33;;
11921;SDS011;6021;51.182;3.160;2024-01-25T05:31:27;11.07;;;4.93;;
11921;SDS011;6021;51.182;3.160;2024-01-25T05:33:55;13.80;;;5.27;;
11921;SDS011;6021;51.182;3.160;2024-01-25T05:36:23;14.77;;;5.50;;
11921;SDS011;6021;51.182;3.160;2024-01-25T05:38:52;18.17;;;6.00;;
11921;SDS011;6021;51.182;3.160;2024-01-25T05:41:20;19.60;;;5.83;;
11921;SDS011;6021;51.182;3.160;2024-01-25T05:43:49;18.20;;;5.53;;
11921;SDS011;6021;51.182;3.160;2024-01-25T05:46:17;18.93;;;5.67;;
11921;SDS011;6021;51.182;3.160;2024-01-25T05:48:45;14.60;;;5.60;;
11921;SDS011;6021;51.182;3.160;2024-01-25T05:51:14;17.83;;;5.77;;
11921;SDS011;6021;51.182;3.160;2024-01-25T05:53:42;16.97;;;5.70;;
11921;SDS011;6021;51.182;3.160;2024-01-25T05:56:10;11.87;;;5.40;;
11921;SDS011;6021;51.182;3.160;2024-01-25T05:58:39;16.10;;;5.47;;
11921;SDS011;6021;51.182;3.160;2024-01-25T06:01:07;13.57;;;5.30;;
11921;SDS011;6021;51.182;3.160;2024-01-25T06:03:36;14.73;;;5.13;;
11921;SDS011;6021;51.182;3.160;2024-01-25T06:06:05;18.47;;;5.67;;
11921;SDS011;6021;51.182;3.160;2024-01-25T06:08:34;16.37;;;5.20;;
11921;SDS011;6021;51.182;3.160;2024-01-25T06:11:02;20.30;;;6.10;;
11921;SDS011;6021;51.182;3.160;2024-01-25T06:13:31;18.30;;;5.83;;
11921;SDS011;6021;51.182;3.160;2024-01-25T06:15:59;20.30;;;5.77;;
11921;SDS011;6021;51.182;3.160;2024-01-25T06:18:28;16.87;;;5.20;;
11921;SDS011;6021;51.182;3.160;2024-01-25T06:20:56;14.90;;;5.33;;
11921;SDS011;6021;51.182;3.160;2024-01-25T06:23:24;15.23;;;5.00;;
11921;SDS011;6021;51.182;3.160;2024-01-25T06:25:53;22.43;;;6.07;;
11921;SDS011;6021;51.182;3.160;2024-01-25T06:28:21;17.03;;;5.90;;
11921;SDS011;6021;51.182;3.160;2024-01-25T06:30:49;18.10;;;6.17;;
11921;SDS011;6021;51.182;3.160;2024-01-25T06:33:18;18.57;;;5.80;;
11921;SDS011;6021;51.182;3.160;2024-01-25T06:35:46;14.17;;;5.63;;
11921;SDS011;6021;51.182;3.160;2024-01-25T06:38:15;16.43;;;6.00;;
11921;SDS011;6021;51.182;3.160;2024-01-25T06:40:43;16.77;;;6.17;;
11921;SDS011;6021;51.182;3.160;2024-01-25T06:43:11;17.13;;;5.90;;
11921;SDS011;6021;51.182;3.160;2024-01-25T06:45:40;19.63;;;5.83;;
11921;SDS011;6021;51.182;3.160;2024-01-25T06:48:08;23.63;;;6.43;;
11921;SDS011;6021;51.182;3.160;2024-01-25T06:50:37;27.27;;;7.53;;
11921;SDS011;6021;51.182;3.160;2024-01-25T06:53:05;25.37;;;6.83;;
11921;SDS011;6021;51.182;3.160;2024-01-25T06:55:34;27.17;;;6.70;;
11921;SDS011;6021;51.182;3.160;2024-01-25T06:58:02;21.23;;;5.73;;
11921;SDS011;6021;51.182;3.160;2024-01-25T07:00:30;19.73;;;6.47;;
11921;SDS011;6021;51.182;3.160;2024-01-25T07:02:59;19.63;;;6.37;;
11921;SDS011;6021;51.182;3.160;2024-01-25T07:05:27;14.73;;;5.73;;
11921;SDS011;6021;51.182;3.160;2024-01-25T07:07:57;23.00;;;7.40;;
11921;SDS011;6021;51.182;3.160;2024-01-25T07:10:25;22.83;;;7.23;;
11921;SDS011;6021;51.182;3.160;2024-01-25T07:12:54;22.93;;;7.77;;
11921;SDS011;6021;51.182;3.160;2024-01-25T07:15:22;19.90;;;7.30;;
11921;SDS011;6021;51.182;3.160;2024-01-25T07:17:51;23.30;;;7.50;;
11921;SDS011;6021;51.182;3.160;2024-01-25T07:20:19;22.33;;;7.63;;
11921;SDS011;6021;51.182;3.160;2024-01-25T07:22:48;15.53;;;6.00;;
11921;SDS011;6021;51.182;3.160;2024-01-25T07:25:16;18.80;;;6.20;;
11921;SDS011;6021;51.182;3.160;2024-01-25T07:27:45;16.93;;;6.13;;
11921;SDS011;6021;51.182;3.160;2024-01-25T07:30:13;21.87;;;7.20;;
11921;SDS011;6021;51.182;3.160;2024-01-25T07:32:42;22.97;;;7.80;;
11921;SDS011;6021;51.182;3.160;2024-01-25T07:35:12;22.77;;;7.93;;
11921;SDS011;6021;51.182;3.160;2024-01-25T07:37:40;25.37;;;7.43;;
11921;SDS011;6021;51.182;3.160;2024-01-25T07:40:09;26.60;;;7.77;;
11921;SDS011;6021;51.182;3.160;2024-01-25T07:42:38;22.30;;;7.77;;
11921;SDS011;6021;51.182;3.160;2024-01-25T07:45:06;23.30;;;8.03;;
11921;SDS011;6021;51.182;3.160;2024-01-25T07:47:35;25.90;;;7.77;;
11921;SDS011;6021;51.182;3.160;2024-01-25T07:50:04;23.27;;;7.73;;
11921;SDS011;6021;51.182;3.160;2024-01-25T07:52:35;26.27;;;8.43;;
11921;SDS011;6021;51.182;3.160;2024-01-25T07:55:03;23.30;;;7.93;;
11921;SDS011;6021;51.182;3.160;2024-01-25T07:57:32;24.20;;;8.67;;
11921;SDS011;6021;51.182;3.160;2024-01-25T08:00:00;24.70;;;7.93;;
11921;SDS011;6021;51.182;3.160;2024-01-25T08:02:28;23.23;;;8.33;;
11921;SDS011;6021;51.182;3.160;2024-01-25T08:04:57;20.07;;;8.10;;
11921;SDS011;6021;51.182;3.160;2024-01-25T08:07:25;20.70;;;8.67;;
11921;SDS011;6021;51.182;3.160;2024-01-25T08:09:53;24.17;;;9.40;;
11921;SDS011;6021;51.182;3.160;2024-01-25T08:12:29;23.43;;;9.90;;
11921;SDS011;6021;51.182;3.160;2024-01-25T08:14:53;27.97;;;10.87;;
11921;SDS011;6021;51.182;3.160;2024-01-25T08:17:22;26.13;;;10.40;;
11921;SDS011;6021;51.182;3.160;2024-01-25T08:19:50;20.73;;;10.30;;
11921;SDS011;6021;51.182;3.160;2024-01-25T08:22:18;28.43;;;10.77;;
11921;SDS011;6021;51.182;3.160;2024-01-25T08:24:47;28.40;;;13.00;;
11921;SDS011;6021;51.182;3.160;2024-01-25T08:27:15;19.37;;;10.20;;
11921;SDS011;6021;51.182;3.160;2024-01-25T08:29:44;21.60;;;11.30;;
11921;SDS011;6021;51.182;3.160;2024-01-25T08:32:13;21.37;;;11.53;;
11921;SDS011;6021;51.182;3.160;2024-01-25T08:34:41;21.67;;;11.53;;
11921;SDS011;6021;51.182;3.160;2024-01-25T08:37:10;24.43;;;11.80;;
11921;SDS011;6021;51.182;3.160;2024-01-25T08:39:38;26.00;;;11.67;;
11921;SDS011;6021;51.182;3.160;2024-01-25T08:42:06;18.03;;;10.63;;
11921;SDS011;6021;51.182;3.160;2024-01-25T08:44:35;18.37;;;11.10;;
11921;SDS011;6021;51.182;3.160;2024-01-25T08:47:05;17.87;;;11.13;;
11921;SDS011;6021;51.182;3.160;2024-01-25T08:49:37;18.23;;;10.97;;
11921;SDS011;6021;51.182;3.160;2024-01-25T08:52:05;18.27;;;10.73;;
11921;SDS011;6021;51.182;3.160;2024-01-25T08:54:34;18.37;;;11.60;;
11921;SDS011;6021;51.182;3.160;2024-01-25T08:57:04;19.67;;;10.47;;
11921;SDS011;6021;51.182;3.160;2024-01-25T08:59:33;17.53;;;11.43;;
11921;SDS011;6021;51.182;3.160;2024-01-25T09:02:04;21.60;;;11.20;;
11921;SDS011;6021;51.182;3.160;2024-01-25T09:04:33;21.27;;;11.87;;
11921;SDS011;6021;51.182;3.160;2024-01-25T09:07:01;18.73;;;10.90;;
11921;SDS011;6021;51.182;3.160;2024-01-25T09:09:30;20.67;;;11.67;;
11921;SDS011;6021;51.182;3.160;2024-01-25T09:11:58;19.00;;;11.93;;
11921;SDS011;6021;51.182;3.160;2024-01-25T09:14:27;21.90;;;11.83;;
11921;SDS011;6021;51.182;3.160;2024-01-25T09:16:57;20.57;;;12.23;;
11921;SDS011;6021;51.182;3.160;2024-01-25T09:19:25;22.20;;;11.93;;
11921;SDS011;6021;51.182;3.160;2024-01-25T09:21:54;21.13;;;11.47;;
11921;SDS011;6021;51.182;3.160;2024-01-25T09:24:24;19.83;;;11.43;;
11921;SDS011;6021;51.182;3.160;2024-01-25T09:26:52;21.43;;;12.27;;
11921;SDS011;6021;51.182;3.160;2024-01-25T09:29:21;22.27;;;12.30;;
11921;SDS011;6021;51.182;3.160;2024-01-25T09:31:50;22.63;;;12.37;;
11921;SDS011;6021;51.182;3.160;2024-01-25T09:34:19;21.67;;;11.77;;
11921;SDS011;6021;51.182;3.160;2024-01-25T09:36:47;25.33;;;13.30;;
11921;SDS011;6021;51.182;3.160;2024-01-25T09:39:16;29.60;;;15.03;;
11921;SDS011;6021;51.182;3.160;2024-01-25T09:41:44;33.00;;;15.00;;
11921;SDS011;6021;51.182;3.160;2024-01-25T09:44:13;25.67;;;13.73;;
11921;SDS011;6021;51.182;3.160;2024-01-25T09:46:43;33.07;;;15.87;;
11921;SDS011;6021;51.182;3.160;2024-01-25T09:49:12;33.83;;;15.57;;
11921;SDS011;6021;51.182;3.160;2024-01-25T09:51:41;28.77;;;15.93;;
11921;SDS011;6021;51.182;3.160;2024-01-25T09:54:10;28.03;;;15.17;;
11921;SDS011;6021;51.182;3.160;2024-01-25T09:56:40;30.83;;;15.17;;
11921;SDS011;6021;51.182;3.160;2024-01-25T09:59:09;33.63;;;15.53;;
11921;SDS011;6021;51.182;3.160;2024-01-25T10:01:38;30.57;;;14.57;;
11921;SDS011;6021;51.182;3.160;2024-01-25T10:04:07;34.33;;;17.20;;
11921;SDS011;6021;51.182;3.160;2024-01-25T10:06:35;33.30;;;16.63;;
11921;SDS011;6021;51.182;3.160;2024-01-25T10:09:04;32.83;;;15.87;;
11921;SDS011;6021;51.182;3.160;2024-01-25T10:11:34;31.47;;;15.57;;
11921;SDS011;6021;51.182;3.160;2024-01-25T10:14:04;28.60;;;15.37;;
11921;SDS011;6021;51.182;3.160;2024-01-25T10:16:33;27.77;;;15.03;;
11921;SDS011;6021;51.182;3.160;2024-01-25T10:19:02;29.47;;;14.77;;
11921;SDS011;6021;51.182;3.160;2024-01-25T10:21:35;27.47;;;14.43;;
11921;SDS011;6021;51.182;3.160;2024-01-25T10:24:05;28.60;;;14.80;;
11921;SDS011;6021;51.182;3.160;2024-01-25T10:26:34;27.67;;;14.90;;
11921;SDS011;6021;51.182;3.160;2024-01-25T10:29:03;24.73;;;13.27;;
11921;SDS011;6021;51.182;3.160;2024-01-25T10:31:32;25.47;;;13.17;;
11921;SDS011;6021;51.182;3.160;2024-01-25T10:34:03;20.90;;;13.23;;
11921;SDS011;6021;51.182;3.160;2024-01-25T10:36:32;22.37;;;13.30;;
11921;SDS011;6021;51.182;3.160;2024-01-25T10:39:02;21.23;;;12.83;;
11921;SDS011;6021;51.182;3.160;2024-01-25T10:41:31;24.20;;;12.57;;
11921;SDS011;6021;51.182;3.160;2024-01-25T10:44:01;24.47;;;13.03;;
11921;SDS011;6021;51.182;3.160;2024-01-25T10:46:30;21.10;;;13.33;;
11921;SDS011;6021;51.182;3.160;2024-01-25T10:49:00;30.97;;;15.27;;
11921;SDS011;6021;51.182;3.160;2024-01-25T10:51:29;23.83;;;13.70;;
11921;SDS011;6021;51.182;3.160;2024-01-25T10:53:58;21.30;;;14.00;;
11921;SDS011;6021;51.182;3.160;2024-01-25T10:56:27;20.27;;;14.57;;
11921;SDS011;6021;51.182;3.160;2024-01-25T10:58:56;22.07;;;13.80;;
11921;SDS011;6021;51.182;3.160;2024-01-25T11:01:26;26.37;;;14.47;;
11921;SDS011;6021;51.182;3.160;2024-01-25T11:03:55;27.63;;;14.60;;
11921;SDS011;6021;51.182;3.160;2024-01-25T11:06:23;22.77;;;13.00;;
11921;SDS011;6021;51.182;3.160;2024-01-25T11:09:05;21.93;;;13.50;;
11921;SDS011;6021;51.182;3.160;2024-01-25T11:11:35;20.30;;;12.40;;
11921;SDS011;6021;51.182;3.160;2024-01-25T11:14:04;17.93;;;12.10;;
11921;SDS011;6021;51.182;3.160;2024-01-25T11:16:34;19.40;;;12.87;;
11921;SDS011;6021;51.182;3.160;2024-01-25T11:19:05;19.90;;;12.60;;
11921;SDS011;6021;51.182;3.160;2024-01-25T11:21:40;16.43;;;11.67;;
11921;SDS011;6021;51.182;3.160;2024-01-25T11:24:16;16.10;;;11.23;;
11921;SDS011;6021;51.182;3.160;2024-01-25T11:26:46;17.53;;;11.17;;
11921;SDS011;6021;51.182;3.160;2024-01-25T11:29:16;20.03;;;12.40;;
11921;SDS011;6021;51.182;3.160;2024-01-25T11:31:45;19.47;;;11.80;;
11921;SDS011;6021;51.182;3.160;2024-01-25T11:34:14;19.90;;;12.00;;
11921;SDS011;6021;51.182;3.160;2024-01-25T11:36:44;16.93;;;11.53;;
11921;SDS011;6021;51.182;3.160;2024-01-25T11:39:13;17.20;;;11.57;;
11921;SDS011;6021;51.182;3.160;2024-01-25T11:41:43;16.93;;;11.63;;
11921;SDS011;6021;51.182;3.160;2024-01-25T11:44:13;17.50;;;11.77;;
11921;SDS011;6021;51.182;3.160;2024-01-25T11:46:41;17.30;;;12.20;;
11921;SDS011;6021;51.182;3.160;2024-01-25T11:49:10;17.37;;;12.60;;
11921;SDS011;6021;51.182;3.160;2024-01-25T11:51:38;17.60;;;12.43;;
11921;SDS011;6021;51.182;3.160;2024-01-25T11:54:07;17.53;;;13.00;;
11921;SDS011;6021;51.182;3.160;2024-01-25T11:56:37;19.73;;;12.37;;
11921;SDS011;6021;51.182;3.160;2024-01-25T11:59:07;19.50;;;12.47;;
11921;SDS011;6021;51.182;3.160;2024-01-25T12:01:36;20.40;;;12.27;;
11921;SDS011;6021;51.182;3.160;2024-01-25T12:04:05;19.33;;;11.50;;
11921;SDS011;6021;51.182;3.160;2024-01-25T12:06:34;18.20;;;12.27;;
11921;SDS011;6021;51.182;3.160;2024-01-25T12:09:06;15.90;;;11.63;;
11921;SDS011;6021;51.182;3.160;2024-01-25T12:11:35;17.03;;;12.13;;
11921;SDS011;6021;51.182;3.160;2024-01-25T12:14:04;20.10;;;12.90;;
11921;SDS011;6021;51.182;3.160;2024-01-25T12:16:35;17.50;;;12.27;;
11921;SDS011;6021;51.182;3.160;2024-01-25T12:19:03;16.87;;;12.73;;
11921;SDS011;6021;51.182;3.160;2024-01-25T12:21:37;18.50;;;14.33;;
11921;SDS011;6021;51.182;3.160;2024-01-25T12:24:02;19.50;;;13.57;;
11921;SDS011;6021;51.182;3.160;2024-01-25T12:26:36;20.90;;;13.33;;
11921;SDS011;6021;51.182;3.160;2024-01-25T12:29:05;17.47;;;13.63;;
11921;SDS011;6021;51.182;3.160;2024-01-25T12:31:34;20.00;;;14.47;;
11921;SDS011;6021;51.182;3.160;2024-01-25T12:34:03;21.03;;;15.20;;
11921;SDS011;6021;51.182;3.160;2024-01-25T12:36:32;20.50;;;15.03;;
11921;SDS011;6021;51.182;3.160;2024-01-25T12:39:01;21.03;;;14.57;;
11921;SDS011;6021;51.182;3.160;2024-01-25T12:41:31;20.80;;;15.53;;
11921;SDS011;6021;51.182;3.160;2024-01-25T12:43:59;18.47;;;14.10;;
11921;SDS011;6021;51.182;3.160;2024-01-25T12:46:28;20.47;;;15.50;;
11921;SDS011;6021;51.182;3.160;2024-01-25T12:49:02;19.07;;;14.40;;
11921;SDS011;6021;51.182;3.160;2024-01-25T12:51:26;20.00;;;14.60;;
11921;SDS011;6021;51.182;3.160;2024-01-25T12:53:54;18.67;;;14.17;;
11921;SDS011;6021;51.182;3.160;2024-01-25T12:56:23;20.27;;;14.43;;
11921;SDS011;6021;51.182;3.160;2024-01-25T12:58:51;19.63;;;13.67;;
11921;SDS011;6021;51.182;3.160;2024-01-25T13:01:20;17.43;;;12.57;;
11921;SDS011;6021;51.182;3.160;2024-01-25T13:03:48;19.83;;;12.83;;
11921;SDS011;6021;51.182;3.160;2024-01-25T13:06:17;17.30;;;11.57;;
11921;SDS011;6021;51.182;3.160;2024-01-25T13:08:45;16.97;;;11.70;;
11921;SDS011;6021;51.182;3.160;2024-01-25T13:11:13;16.87;;;11.67;;
11921;SDS011;6021;51.182;3.160;2024-01-25T13:13:42;15.03;;;11.50;;
11921;SDS011;6021;51.182;3.160;2024-01-25T13:16:11;15.57;;;10.60;;
11921;SDS011;6021;51.182;3.160;2024-01-25T13:18:40;17.40;;;10.80;;
11921;SDS011;6021;51.182;3.160;2024-01-25T13:21:08;18.47;;;11.10;;
11921;SDS011;6021;51.182;3.160;2024-01-25T13:23:37;18.23;;;11.53;;
11921;SDS011;6021;51.182;3.160;2024-01-25T13:26:05;17.67;;;11.00;;
11921;SDS011;6021;51.182;3.160;2024-01-25T13:28:34;18.30;;;11.20;;
11921;SDS011;6021;51.182;3.160;2024-01-25T13:31:02;17.10;;;10.53;;
11921;SDS011;6021;51.182;3.160;2024-01-25T13:33:30;15.93;;;11.23;;
11921;SDS011;6021;51.182;3.160;2024-01-25T13:35:59;16.07;;;10.57;;
11921;SDS011;6021;51.182;3.160;2024-01-25T13:38:27;17.93;;;11.03;;
11921;SDS011;6021;51.182;3.160;2024-01-25T13:40:55;18.53;;;10.57;;
11921;SDS011;6021;51.182;3.160;2024-01-25T13:43:24;17.70;;;10.37;;
11921;SDS011;6021;51.182;3.160;2024-01-25T13:45:53;20.10;;;12.10;;
11921;SDS011;6021;51.182;3.160;2024-01-25T13:48:22;16.40;;;11.07;;
11921;SDS011;6021;51.182;3.160;2024-01-25T13:50:51;19.17;;;10.93;;
11921;SDS011;6021;51.182;3.160;2024-01-25T13:53:19;19.20;;;10.77;;
11921;SDS011;6021;51.182;3.160;2024-01-25T13:55:48;15.70;;;10.17;;
11921;SDS011;6021;51.182;3.160;2024-01-25T13:58:16;13.83;;;10.27;;
11921;SDS011;6021;51.182;3.160;2024-01-25T14:00:44;20.50;;;10.50;;
11921;SDS011;6021;51.182;3.160;2024-01-25T14:03:14;15.63;;;9.43;;
11921;SDS011;6021;51.182;3.160;2024-01-25T14:05:43;17.50;;;9.83;;
11921;SDS011;6021;51.182;3.160;2024-01-25T14:08:11;17.50;;;9.40;;
11921;SDS011;6021;51.182;3.160;2024-01-25T14:10:40;11.13;;;7.73;;
11921;SDS011;6021;51.182;3.160;2024-01-25T14:13:08;14.27;;;7.70;;
11921;SDS011;6021;51.182;3.160;2024-01-25T14:15:37;16.40;;;8.13;;
11921;SDS011;6021;51.182;3.160;2024-01-25T14:18:05;11.23;;;7.40;;
11921;SDS011;6021;51.182;3.160;2024-01-25T14:20:33;12.43;;;8.40;;
11921;SDS011;6021;51.182;3.160;2024-01-25T14:23:03;11.60;;;8.00;;
11921;SDS011;6021;51.182;3.160;2024-01-25T14:25:32;14.17;;;7.80;;
11921;SDS011;6021;51.182;3.160;2024-01-25T14:28:00;12.50;;;8.43;;
11921;SDS011;6021;51.182;3.160;2024-01-25T14:30:28;12.40;;;8.50;;
11921;SDS011;6021;51.182;3.160;2024-01-25T14:32:57;13.27;;;8.53;;
11921;SDS011;6021;51.182;3.160;2024-01-25T14:35:25;15.47;;;9.17;;
11921;SDS011;6021;51.182;3.160;2024-01-25T14:37:55;15.77;;;8.30;;
11921;SDS011;6021;51.182;3.160;2024-01-25T14:40:24;14.27;;;8.50;;
11921;SDS011;6021;51.182;3.160;2024-01-25T14:42:53;21.87;;;9.50;;
11921;SDS011;6021;51.182;3.160;2024-01-25T14:45:21;15.80;;;8.77;;
11921;SDS011;6021;51.182;3.160;2024-01-25T14:47:49;16.13;;;9.30;;
11921;SDS011;6021;51.182;3.160;2024-01-25T14:50:18;18.13;;;9.20;;
11921;SDS011;6021;51.182;3.160;2024-01-25T14:52:46;16.67;;;8.80;;